Time;durP1;ratioP1;P1;durP2;ratioP2;P2;SDS_P1;SDS_P2;PMS_P1;PMS_P2;Temp;Humidity;BMP_temperature;BMP_pressure;BME280_temperature;BME280_humidity;BME280_pressure;Samples;Min_cycle;Max_cycle;Signal;HPM_P1;HPM_P2
2022/07/30 00:00:05;;;;;;;5.13;3.80;;;15.50;99.90;;;;;;6077866;23;20199;-86
2022/07/30 00:02:31;;;;;;;4.43;3.90;;;15.50;99.90;;;;;;6101390;23;20190;-86
2022/07/30 00:04:56;;;;;;;6.87;4.57;;;15.50;99.90;;;;;;6076713;23;20283;-86
2022/07/30 00:07:22;;;;;;;8.70;3.87;;;15.50;99.90;;;;;;6077554;23;20202;-85
2022/07/30 00:09:48;;;;;;;8.10;4.40;;;15.50;99.90;;;;;;6076831;23;20200;-86
2022/07/30 00:12:14;;;;;;;5.77;3.67;;;15.60;99.90;;;;;;6101264;23;20558;-85
2022/07/30 00:14:40;;;;;;;6.33;3.17;;;15.50;99.90;;;;;;6125714;23;20169;-86
2022/07/30 00:17:06;;;;;;;6.37;3.53;;;15.50;99.90;;;;;;6100982;23;20230;-85
2022/07/30 00:19:32;;;;;;;7.70;4.83;;;15.50;99.90;;;;;;6076738;23;20701;-86
2022/07/30 00:21:58;;;;;;;4.13;3.37;;;15.40;99.90;;;;;;6125125;23;20198;-86
2022/07/30 00:24:23;;;;;;;6.70;4.13;;;15.40;99.90;;;;;;6100699;23;20204;-86
2022/07/30 00:26:49;;;;;;;5.30;3.50;;;15.40;99.90;;;;;;6077570;23;20171;-86
2022/07/30 00:29:15;;;;;;;4.80;3.80;;;15.40;99.90;;;;;;6125086;23;20290;-86
2022/07/30 00:31:41;;;;;;;6.67;3.87;;;15.30;99.90;;;;;;6125258;23;20200;-86
2022/07/30 00:34:06;;;;;;;5.00;3.03;;;15.30;99.90;;;;;;6100556;23;20279;-86
2022/07/30 00:36:32;;;;;;;5.90;3.90;;;15.20;99.90;;;;;;6100804;23;20223;-86
2022/07/30 00:38:58;;;;;;;7.17;4.10;;;15.20;99.90;;;;;;6101136;23;20166;-85
2022/07/30 00:41:24;;;;;;;6.13;4.03;;;15.20;99.90;;;;;;6125038;23;20196;-86
2022/07/30 00:43:50;;;;;;;8.77;4.20;;;15.20;99.90;;;;;;6125065;23;20235;-86
2022/07/30 00:46:16;;;;;;;5.10;3.40;;;15.10;99.90;;;;;;6076609;23;20208;-86
2022/07/30 00:48:42;;;;;;;5.07;3.83;;;15.10;99.90;;;;;;6100755;23;20211;-86
2022/07/30 00:51:09;;;;;;;5.83;3.57;;;15.10;99.90;;;;;;6125086;23;20574;-85
2022/07/30 00:53:34;;;;;;;7.30;4.23;;;15.20;99.90;;;;;;6125541;23;20179;-86
2022/07/30 00:56:00;;;;;;;9.10;4.50;;;15.10;99.90;;;;;;6100543;23;20645;-86
2022/07/30 00:58:26;;;;;;;5.97;4.10;;;15.10;99.90;;;;;;6124790;23;20211;-86
2022/07/30 01:00:52;;;;;;;7.00;4.27;;;15.10;99.90;;;;;;6076848;23;20196;-86
2022/07/30 01:03:18;;;;;;;6.43;4.03;;;15.10;99.90;;;;;;6100739;23;20164;-85
2022/07/30 01:05:44;;;;;;;5.20;3.73;;;15.10;99.90;;;;;;6101169;23;20490;-86
2022/07/30 01:08:09;;;;;;;4.93;3.57;;;15.10;99.90;;;;;;6124638;23;20239;-86
2022/07/30 01:10:35;;;;;;;5.97;3.60;;;15.00;99.90;;;;;;6076357;23;20199;-86
2022/07/30 01:13:02;;;;;;;7.90;3.73;;;15.00;99.90;;;;;;6100701;23;20275;-86
2022/07/30 01:15:28;;;;;;;12.70;5.30;;;15.00;99.90;;;;;;6100877;23;20222;-86
2022/07/30 01:17:58;;;;;;;8.23;4.47;;;14.90;99.90;;;;;;6125111;23;20199;-86
2022/07/30 01:20:39;;;;;;;6.63;4.53;;;15.00;99.90;;;;;;6124516;23;20196;-86
2022/07/30 01:23:05;;;;;;;5.47;4.23;;;15.00;99.90;;;;;;6124587;23;20195;-86
2022/07/30 01:25:31;;;;;;;7.03;4.80;;;15.00;99.90;;;;;;6124938;23;20573;-86
2022/07/30 01:28:03;;;;;;;9.27;5.03;;;15.00;99.90;;;;;;6124836;23;20278;-86
2022/07/30 01:30:33;;;;;;;5.80;4.93;;;15.10;99.90;;;;;;6125253;23;20563;-86
2022/07/30 01:33:00;;;;;;;8.50;5.20;;;15.10;99.90;;;;;;6128322;23;20159;-87
2022/07/30 01:35:28;;;;;;;10.17;5.30;;;15.10;99.90;;;;;;6103926;23;20200;-86
2022/07/30 01:37:56;;;;;;;6.40;4.83;;;15.10;99.90;;;;;;6104150;23;20653;-86
2022/07/30 01:40:23;;;;;;;5.30;3.73;;;14.90;99.90;;;;;;6127935;23;20270;-86
2022/07/30 01:42:56;;;;;;;7.70;4.90;;;14.80;99.90;;;;;;6127696;23;20207;-86
2022/07/30 01:45:27;;;;;;;6.93;4.47;;;14.70;99.90;;;;;;6128187;23;20151;-86
2022/07/30 01:47:57;;;;;;;4.67;3.47;;;14.70;99.90;;;;;;6128697;23;20454;-86
2022/07/30 01:50:23;;;;;;;9.13;4.70;;;14.70;99.90;;;;;;6127631;23;20207;-85
2022/07/30 01:52:51;;;;;;;6.27;4.40;;;14.70;99.90;;;;;;6103499;23;20278;-86
2022/07/30 01:55:33;;;;;;;7.50;4.77;;;14.70;99.90;;;;;;6128110;23;20583;-86
2022/07/30 01:58:00;;;;;;;6.87;4.17;;;14.60;99.90;;;;;;6129329;23;20234;-86
2022/07/30 02:00:29;;;;;;;7.33;5.50;;;14.70;99.90;;;;;;6129607;23;20635;-86
2022/07/30 02:02:56;;;;;;;11.23;5.57;;;14.80;99.90;;;;;;6128441;23;20164;-86
2022/07/30 02:05:23;;;;;;;7.90;4.73;;;14.90;99.90;;;;;;6127833;23;20207;-86
2022/07/30 02:07:57;;;;;;;8.97;5.37;;;14.80;99.90;;;;;;6079805;23;20192;-86
2022/07/30 02:10:31;;;;;;;7.17;4.07;;;14.80;99.90;;;;;;6127941;23;20660;-86
2022/07/30 02:13:00;;;;;;;5.57;4.07;;;14.80;99.90;;;;;;6128023;23;20672;-86
2022/07/30 02:15:53;;;;;;;10.17;5.80;;;14.70;99.90;;;;;;6104184;23;20223;-85
2022/07/30 02:18:35;;;;;;;10.10;5.00;;;14.70;99.90;;;;;;6128002;23;20168;-86
2022/07/30 02:21:07;;;;;;;8.70;5.03;;;14.80;99.90;;;;;;6128949;23;20149;-86
2022/07/30 02:23:40;;;;;;;16.30;4.93;;;14.80;99.90;;;;;;6128480;23;20200;-86
2022/07/30 02:26:07;;;;;;;5.23;3.20;;;14.70;99.90;;;;;;6127762;23;20199;-86
2022/07/30 02:28:38;;;;;;;3.10;2.47;;;14.30;99.90;;;;;;6103773;23;20196;-86
2022/07/30 02:31:06;;;;;;;3.73;3.10;;;13.90;99.90;;;;;;6128041;23;20588;-86
2022/07/30 02:33:43;;;;;;;7.53;3.77;;;13.60;99.90;;;;;;6127996;23;20809;-86
2022/07/30 02:36:10;;;;;;;5.20;4.03;;;13.60;99.90;;;;;;6103308;23;20155;-86
2022/07/30 02:38:38;;;;;;;4.87;3.37;;;13.90;99.90;;;;;;6104528;23;20193;-86
2022/07/30 02:41:06;;;;;;;6.07;3.83;;;13.90;99.90;;;;;;6127640;23;20196;-86
2022/07/30 02:43:34;;;;;;;7.40;4.50;;;13.90;99.90;;;;;;6126393;23;20220;-86
2022/07/30 02:46:01;;;;;;;5.27;4.40;;;14.00;99.90;;;;;;6101986;23;20200;-87
2022/07/30 02:48:28;;;;;;;8.30;4.87;;;14.00;99.90;;;;;;6102259;23;20565;-87
2022/07/30 02:50:57;;;;;;;7.67;4.63;;;14.00;99.90;;;;;;6102801;23;20215;-86
2022/07/30 02:53:24;;;;;;;8.13;5.37;;;14.00;99.90;;;;;;6101939;23;20331;-86
2022/07/30 02:55:53;;;;;;;7.70;5.27;;;14.20;99.90;;;;;;6125976;23;20625;-86
2022/07/30 02:58:22;;;;;;;13.00;6.57;;;14.30;99.90;;;;;;6101495;23;20631;-85
2022/07/30 03:00:50;;;;;;;9.23;5.27;;;14.40;99.90;;;;;;6126073;23;20207;-86
2022/07/30 03:03:16;;;;;;;10.03;6.03;;;14.50;99.90;;;;;;6127467;23;20171;-85
2022/07/30 03:05:43;;;;;;;8.17;4.90;;;14.40;99.90;;;;;;6078726;23;20171;-86
2022/07/30 03:08:10;;;;;;;9.83;6.23;;;14.40;99.90;;;;;;6125962;23;20192;-86
2022/07/30 03:10:38;;;;;;;13.87;7.13;;;14.50;99.90;;;;;;6125719;23;20275;-86
2022/07/30 03:13:06;;;;;;;14.47;7.40;;;14.50;99.90;;;;;;6102276;23;20196;-86
2022/07/30 03:15:34;;;;;;;11.73;7.30;;;14.60;99.90;;;;;;6101571;23;20188;-86
2022/07/30 03:18:02;;;;;;;6.23;3.97;;;14.60;99.90;;;;;;6125994;23;20264;-85
2022/07/30 03:20:30;;;;;;;6.07;3.53;;;14.40;99.90;;;;;;6101647;23;20616;-86
2022/07/30 03:22:57;;;;;;;7.30;4.03;;;14.20;99.90;;;;;;6101285;23;20202;-85
2022/07/30 03:25:26;;;;;;;6.50;3.57;;;14.00;99.90;;;;;;6125419;23;20199;-85
2022/07/30 03:27:54;;;;;;;6.47;4.03;;;13.80;99.90;;;;;;6125572;23;20196;-85
2022/07/30 03:30:22;;;;;;;14.47;5.77;;;13.80;99.90;;;;;;6126005;23;20156;-85
2022/07/30 03:32:49;;;;;;;16.37;8.07;;;13.90;99.90;;;;;;6127534;23;20211;-85
2022/07/30 03:35:15;;;;;;;15.47;9.53;;;14.30;99.90;;;;;;6101507;23;20207;-85
2022/07/30 03:37:42;;;;;;;16.47;8.47;;;14.40;99.90;;;;;;6100964;23;20286;-85
2022/07/30 03:40:08;;;;;;;16.10;7.43;;;14.60;99.90;;;;;;6125329;23;20852;-85
2022/07/30 03:42:35;;;;;;;11.37;7.07;;;14.70;99.90;;;;;;6097243;23;20509;-85
2022/07/30 03:45:07;;;;;;;14.97;6.70;;;14.70;99.90;;;;;;6072977;23;20160;-85
2022/07/30 03:47:36;;;;;;;11.93;7.33;;;14.70;99.90;;;;;;6072604;23;20187;-85
2022/07/30 03:50:02;;;;;;;12.87;7.40;;;14.80;99.90;;;;;;6071699;23;20216;-85
2022/07/30 03:52:29;;;;;;;10.73;6.70;;;14.80;99.90;;;;;;6047550;23;20252;-85
2022/07/30 03:54:55;;;;;;;15.30;7.23;;;14.90;99.90;;;;;;6048213;23;20272;-85
2022/07/30 03:57:24;;;;;;;14.67;6.80;;;14.90;99.90;;;;;;6024600;23;20208;-85
2022/07/30 03:59:53;;;;;;;9.87;6.17;;;15.00;99.90;;;;;;6051018;23;20470;-85
2022/07/30 04:02:19;;;;;;;12.53;6.57;;;15.10;99.90;;;;;;6047880;23;20231;-85
2022/07/30 04:04:44;;;;;;;11.80;5.77;;;15.20;99.90;;;;;;6024546;23;20633;-85
2022/07/30 04:07:10;;;;;;;8.90;4.83;;;15.30;99.90;;;;;;6024531;23;20201;-85
2022/07/30 04:09:36;;;;;;;9.40;4.63;;;15.30;99.90;;;;;;6071621;23;20200;-85
2022/07/30 04:12:02;;;;;;;9.53;3.63;;;15.40;99.90;;;;;;6048959;23;20212;-86
2022/07/30 04:14:42;;;;;;;6.33;4.10;;;15.50;99.90;;;;;;6047454;23;20200;-85
2022/07/30 04:17:23;;;;;;;7.07;4.23;;;15.60;99.90;;;;;;6071738;23;20540;-86
2022/07/30 04:19:52;;;;;;;12.83;3.83;;;15.70;99.90;;;;;;6071985;23;20652;-85
2022/07/30 04:22:26;;;;;;;4.27;3.57;;;15.80;99.90;;;;;;6071658;23;20576;-86
2022/07/30 04:24:53;;;;;;;18.40;4.40;;;15.90;99.90;;;;;;6072009;23;20196;-86
2022/07/30 04:27:20;;;;;;;10.73;4.13;;;15.90;99.90;;;;;;6048438;23;20599;-86
2022/07/30 04:29:46;;;;;;;7.33;3.90;;;16.00;99.90;;;;;;6048903;23;20189;-85
2022/07/30 04:32:16;;;;;;;5.73;4.23;;;16.00;99.90;;;;;;6058492;23;20207;-84
2022/07/30 04:34:49;;;;;;;5.03;3.97;;;16.10;99.90;;;;;;6071378;23;20204;-85
2022/07/30 04:37:24;;;;;;;5.07;4.40;;;16.10;99.90;;;;;;6071650;23;20849;-85
2022/07/30 04:39:53;;;;;;;9.57;3.83;;;16.20;99.90;;;;;;6061819;23;20197;-85
2022/07/30 04:42:21;;;;;;;7.13;3.97;;;16.30;99.90;;;;;;6047373;23;20157;-85
2022/07/30 04:44:55;;;;;;;5.07;3.60;;;16.40;99.90;;;;;;6072331;23;20583;-86
2022/07/30 04:47:22;;;;;;;6.03;3.87;;;16.50;99.90;;;;;;6071177;23;20202;-85
2022/07/30 04:49:49;;;;;;;12.30;4.53;;;16.50;99.90;;;;;;6070947;23;20239;-85
2022/07/30 04:52:21;;;;;;;8.00;4.17;;;16.60;99.90;;;;;;6071989;23;20584;-86
2022/07/30 04:55:02;;;;;;;10.63;3.97;;;16.70;99.90;;;;;;6059932;23;20736;-86
2022/07/30 04:57:30;;;;;;;6.80;3.50;;;16.80;99.90;;;;;;6071404;23;20232;-86
2022/07/30 04:59:57;;;;;;;5.57;3.97;;;16.80;99.90;;;;;;6072193;23;20161;-86
2022/07/30 05:02:28;;;;;;;9.33;3.63;;;16.90;99.90;;;;;;6071138;23;20204;-85
2022/07/30 05:04:54;;;;;;;7.57;3.50;;;16.80;99.90;;;;;;6071150;23;20259;-85
2022/07/30 05:07:21;;;;;;;4.37;3.37;;;16.90;99.90;;;;;;6046790;23;20288;-85
2022/07/30 05:09:47;;;;;;;6.63;3.43;;;17.00;99.90;;;;;;6024108;23;20200;-85
2022/07/30 05:12:13;;;;;;;4.13;2.77;;;17.10;99.90;;;;;;6071512;23;20165;-85
2022/07/30 05:14:39;;;;;;;7.97;2.10;;;17.10;99.90;;;;;;6048428;23;20231;-86
2022/07/30 05:17:05;;;;;;;4.20;2.67;;;17.20;99.90;;;;;;6023662;23;20205;-86
2022/07/30 05:19:30;;;;;;;3.80;2.73;;;17.30;99.90;;;;;;6047468;23;20193;-86
2022/07/30 05:21:56;;;;;;;4.23;3.43;;;17.50;99.90;;;;;;6023823;23;20218;-86
2022/07/30 05:24:22;;;;;;;4.57;3.37;;;17.80;99.90;;;;;;6023585;23;20232;-86
2022/07/30 05:26:48;;;;;;;4.47;2.80;;;18.00;99.90;;;;;;6024384;23;20168;-87
2022/07/30 05:29:13;;;;;;;6.73;3.63;;;18.30;99.90;;;;;;6047366;23;20204;-87
2022/07/30 05:31:39;;;;;;;7.30;3.80;;;19.20;99.90;;;;;;6024179;23;20228;-85
2022/07/30 05:34:05;;;;;;;7.83;4.03;;;20.10;99.90;;;;;;6047643;23;20658;-87
2022/07/30 05:36:31;;;;;;;5.83;3.13;;;21.20;99.90;;;;;;6071166;23;20196;-86
2022/07/30 05:38:57;;;;;;;6.30;2.57;;;21.50;99.90;;;;;;6048112;23;20168;-88
2022/07/30 05:41:22;;;;;;;4.13;2.90;;;22.20;99.90;;;;;;6023984;23;20235;-86
2022/07/30 05:43:48;;;;;;;7.20;3.63;;;22.40;99.90;;;;;;6079296;23;20216;-87
2022/07/30 05:46:14;;;;;;;6.03;3.00;;;22.80;99.90;;;;;;6076576;23;20668;-88
2022/07/30 05:48:39;;;;;;;2.97;2.40;;;23.60;99.90;;;;;;6076265;23;20203;-88
2022/07/30 05:51:06;;;;;;;3.70;2.70;;;23.50;99.90;;;;;;6076808;23;20171;-88
2022/07/30 05:53:32;;;;;;;4.30;2.70;;;23.50;99.90;;;;;;6125452;23;20157;-88
2022/07/30 05:55:58;;;;;;;4.40;2.75;;;24.00;99.90;;;;;;6100236;23;20642;-87
2022/07/30 05:58:23;;;;;;;4.90;2.50;;;25.40;99.90;;;;;;6100427;23;20291;-88
2022/07/30 06:00:49;;;;;;;5.50;2.75;;;25.40;99.90;;;;;;6100456;23;20222;-90
2022/07/30 06:03:15;;;;;;;2.75;2.55;;;24.60;99.90;;;;;;6126135;23;20157;-88
2022/07/30 06:05:41;;;;;;;2.88;2.33;;;23.90;99.90;;;;;;6101388;23;20215;-88
2022/07/30 06:08:07;;;;;;;2.90;2.45;;;24.00;99.90;;;;;;6076714;23;20521;-88
2022/07/30 06:10:33;;;;;;;3.00;2.50;;;24.30;99.90;;;;;;6078683;23;20555;-92
2022/07/30 06:12:59;;;;;;;4.38;3.05;;;25.20;99.90;;;;;;6101366;23;20207;-93
2022/07/30 06:15:25;;;;;;;2.28;2.13;;;25.20;99.90;;;;;;6077867;23;20199;-91
2022/07/30 06:17:51;;;;;;;4.55;2.53;;;24.80;99.90;;;;;;6101626;23;20206;-93
2022/07/30 06:20:19;;;;;;;2.63;2.42;;;24.00;99.90;;;;;;6102452;23;20629;-92
2022/07/30 06:22:44;;;;;;;3.67;2.55;;;23.10;99.90;;;;;;6102911;23;20207;-92
2022/07/30 06:25:11;;;;;;;5.68;3.05;;;22.20;99.90;;;;;;6102701;23;20200;-92
2022/07/30 06:27:37;;;;;;;7.18;3.22;;;21.70;99.90;;;;;;6078351;23;20271;-93
2022/07/30 06:30:05;;;;;;;3.83;2.70;;;21.50;99.90;;;;;;6103558;23;20156;-92
2022/07/30 06:32:31;;;;;;;6.00;3.10;;;21.60;99.90;;;;;;6127977;23;20187;-93
2022/07/30 06:34:57;;;;;;;3.90;2.78;;;21.80;99.90;;;;;;6102274;23;20200;-92
2022/07/30 06:37:23;;;;;;;3.33;2.63;;;21.30;99.90;;;;;;6078388;23;20287;-90
2022/07/30 06:39:49;;;;;;;3.35;3.00;;;20.90;99.90;;;;;;6078276;23;20196;-91
2022/07/30 06:42:14;;;;;;;3.90;3.40;;;20.60;99.90;;;;;;6078193;23;20609;-90
2022/07/30 06:44:40;;;;;;;7.07;3.37;;;20.50;99.90;;;;;;6078886;23;20200;-90
2022/07/30 06:47:07;;;;;;;5.07;3.53;;;20.30;99.90;;;;;;6102378;23;20216;-89
2022/07/30 06:49:34;;;;;;;7.23;3.70;;;20.20;99.90;;;;;;6102002;23;20199;-89
2022/07/30 06:52:00;;;;;;;5.70;3.87;;;20.50;99.90;;;;;;6126233;23;20235;-89
2022/07/30 06:54:27;;;;;;;5.97;3.50;;;21.50;99.90;;;;;;6126739;23;20642;-90
2022/07/30 06:56:53;;;;;;;5.70;3.58;;;22.50;99.90;;;;;;6127046;23;20230;-90
2022/07/30 06:59:18;;;;;;;7.18;3.42;;;23.70;99.90;;;;;;6126241;23;20634;-90
2022/07/30 07:01:44;;;;;;;5.93;3.60;;;23.70;99.90;;;;;;6101734;23;20203;-89
2022/07/30 07:04:10;;;;;;;5.10;2.80;;;24.30;99.90;;;;;;6102342;23;20287;-90
2022/07/30 07:06:36;;;;;;;4.85;3.08;;;23.80;99.90;;;;;;6127826;23;20646;-89
2022/07/30 07:09:02;;;;;;;5.78;2.90;;;23.00;99.90;;;;;;6078508;23;20167;-92
2022/07/30 07:11:28;;;;;;;3.80;3.50;;;22.10;99.90;;;;;;6102194;23;20699;-91
2022/07/30 07:13:54;;;;;;;4.45;2.80;;;21.30;99.90;;;;;;6077897;23;20227;-90
2022/07/30 07:16:23;;;;;;;6.70;3.60;;;20.90;99.90;;;;;;6101904;23;20222;-90
2022/07/30 07:18:53;;;;;;;3.30;2.30;;;21.40;99.90;;;;;;6079492;23;20215;-90
2022/07/30 07:21:19;;;;;;;4.13;3.25;;;22.90;99.90;;;;;;6126295;23;20544;-90
2022/07/30 07:23:47;;;;;;;4.57;2.33;;;23.10;99.90;;;;;;6126864;23;20653;-90
2022/07/30 07:26:13;;;;;;;4.70;2.83;;;25.20;99.90;;;;;;6078506;23;20192;-91
2022/07/30 07:28:39;;;;;;;4.82;2.88;;;26.20;99.90;;;;;;6125939;23;20196;-90
2022/07/30 07:31:06;;;;;;;6.97;3.22;;;25.90;99.90;;;;;;6126227;23;20219;-89
2022/07/30 07:33:31;;;;;;;2.95;2.60;;;25.00;99.90;;;;;;6126531;23;20519;-90
2022/07/30 07:35:57;;;;;;;5.82;2.88;;;24.00;99.90;;;;;;6078585;23;20210;-90
2022/07/30 07:38:23;;;;;;;2.83;2.55;;;23.00;99.90;;;;;;6125786;23;20282;-89
2022/07/30 07:40:49;;;;;;;6.22;3.05;;;22.20;99.90;;;;;;6101621;23;20196;-90
2022/07/30 07:43:14;;;;;;;6.40;3.00;;;21.60;99.90;;;;;;6101609;23;20208;-91
2022/07/30 07:45:46;;;;;;;6.68;3.53;;;21.80;99.90;;;;;;6101859;23;20211;-88
2022/07/30 07:48:12;;;;;;;3.67;2.80;;;22.30;99.90;;;;;;6102588;23;20164;-90
2022/07/30 07:50:38;;;;;;;5.35;2.88;;;22.50;99.90;;;;;;6128454;23;20601;-90
2022/07/30 07:53:05;;;;;;;3.45;2.33;;;24.40;99.90;;;;;;6101700;23;20242;-92
2022/07/30 07:55:31;;;;;;;3.25;1.92;;;25.00;99.90;;;;;;6078030;23;20652;-89
2022/07/30 07:57:57;;;;;;;2.97;2.50;;;24.40;99.90;;;;;;6125919;23;20212;-91
2022/07/30 08:00:23;;;;;;;6.53;2.85;;;23.70;99.90;;;;;;6101948;23;20168;-89
2022/07/30 08:02:48;;;;;;;4.50;2.50;;;23.50;99.90;;;;;;6077888;23;20211;-91
2022/07/30 08:05:15;;;;;;;4.95;2.67;;;24.10;99.90;;;;;;6077697;23;20195;-90
2022/07/30 08:07:43;;;;;;;4.43;2.10;;;24.70;99.90;;;;;;6101024;23;20202;-91
2022/07/30 08:10:09;;;;;;;4.85;2.63;;;26.50;99.90;;;;;;6102034;23;20192;-91
2022/07/30 08:12:35;;;;;;;4.10;2.47;;;25.00;99.90;;;;;;6125883;23;20745;-90
2022/07/30 08:15:02;;;;;;;2.47;2.28;;;24.00;99.90;;;;;;6127764;23;20156;-91
2022/07/30 08:17:28;;;;;;;2.55;2.10;;;25.10;99.90;;;;;;6125417;23;20200;-92
2022/07/30 08:19:59;;;;;;;2.75;2.33;;;26.30;99.90;;;;;;6101267;23;20199;-93
2022/07/30 08:22:25;;;;;;;3.45;2.20;;;27.20;99.90;;;;;;6127487;23;20196;-94
2022/07/30 08:24:51;;;;;;;2.38;2.15;;;27.10;99.90;;;;;;6101321;23;20239;-92
2022/07/30 08:27:17;;;;;;;4.50;2.47;;;25.00;99.90;;;;;;6101611;23;20167;-92
2022/07/30 08:29:43;;;;;;;2.60;2.40;;;23.90;99.90;;;;;;6101600;23;20165;-89
2022/07/30 08:32:08;;;;;;;3.72;2.92;;;23.20;99.90;;;;;;6125613;23;20206;-90
2022/07/30 08:34:34;;;;;;;3.78;2.53;;;22.80;99.90;;;;;;6101414;23;20275;-89
2022/07/30 08:37:00;;;;;;;5.05;2.63;;;23.20;99.90;;;;;;6077258;23;20278;-89
2022/07/30 08:39:25;;;;;;;4.07;2.72;;;24.10;99.90;;;;;;6077360;23;20271;-91
2022/07/30 08:41:51;;;;;;;5.97;2.55;;;25.40;99.90;;;;;;6077524;23;20152;-88
2022/07/30 08:44:21;;;;;;;5.90;2.47;;;27.90;99.90;;;;;;6101144;23;20208;-91
2022/07/30 08:46:49;;;;;;;4.20;2.70;;;27.40;99.90;;;;;;6101216;23;20657;-92
2022/07/30 08:49:15;;;;;;;6.45;2.10;;;25.20;99.90;;;;;;6126559;23;20308;-94
2022/07/30 08:51:41;;;;;;;3.45;2.78;;;23.60;99.90;;;;;;6101617;23;20208;-89
2022/07/30 08:54:07;;;;;;;5.22;3.00;;;22.80;99.90;;;;;;6101127;23;20183;-89
2022/07/30 08:56:33;;;;;;;4.53;2.65;;;22.70;99.90;;;;;;6078157;23;20168;-88
2022/07/30 08:59:00;;;;;;;5.72;2.97;;;23.20;99.90;;;;;;6125424;23;20223;-90
2022/07/30 09:01:26;;;;;;;3.85;3.55;;;23.60;99.90;;;;;;6126111;23;20571;-90
2022/07/30 09:03:53;;;;;;;8.82;4.00;;;24.50;99.90;;;;;;6124995;23;20203;-87
2022/07/30 09:06:18;;;;;;;2.38;2.17;;;25.80;99.90;;;;;;6101245;23;20156;-91
2022/07/30 09:08:44;;;;;;;3.13;2.20;;;26.00;99.90;;;;;;6102003;23;20175;-87
2022/07/30 09:11:10;;;;;;;3.63;2.30;;;25.30;99.90;;;;;;6124962;23;20199;-86
2022/07/30 09:13:40;;;;;;;3.10;2.22;;;24.90;99.90;;;;;;6125269;23;20307;-86
2022/07/30 09:16:07;;;;;;;4.25;2.58;;;25.70;99.90;;;;;;6124962;23;20247;-88
2022/07/30 09:18:35;;;;;;;2.53;2.10;;;24.50;99.90;;;;;;6100513;23;20628;-86
2022/07/30 09:21:16;;;;;;;2.97;2.55;;;23.80;99.90;;;;;;6125496;23;20164;-88
2022/07/30 09:24:08;;;;;;;2.80;2.38;;;25.60;99.90;;;;;;6125121;23;20187;-87
2022/07/30 09:27:00;;;;;;;3.95;2.47;;;25.30;99.90;;;;;;6125173;23;20607;-85
2022/07/30 09:29:30;;;;;;;2.55;2.35;;;25.80;99.90;;;;;;6125056;23;20227;-87
2022/07/30 09:32:01;;;;;;;3.78;2.13;;;27.00;99.90;;;;;;6124558;23;20204;-88
2022/07/30 09:34:28;;;;;;;3.08;2.38;;;26.10;99.90;;;;;;6124457;23;20200;-89
2022/07/30 09:37:00;;;;;;;3.50;2.20;;;24.90;99.90;;;;;;6125014;23;20204;-87
2022/07/30 09:39:39;;;;;;;9.48;2.60;;;24.80;99.90;;;;;;6101896;23;20196;-87
2022/07/30 09:42:19;;;;;;;2.63;2.40;;;26.10;99.90;;;;;;6125126;23;20570;-87
2022/07/30 09:44:45;;;;;;;6.55;2.60;;;26.70;99.90;;;;;;6125194;23;20255;-88
2022/07/30 09:47:32;;;;;;;4.70;2.03;;;26.00;99.90;;;;;;6100531;23;20606;-87
2022/07/30 09:50:16;;;;;;;2.63;2.22;;;24.90;99.90;;;;;;6125147;23;20211;-86
2022/07/30 09:52:45;;;;;;;3.83;2.22;;;24.30;99.90;;;;;;6100935;23;20199;-88
2022/07/30 09:55:13;;;;;;;3.72;2.08;;;24.50;99.90;;;;;;6102507;23;20223;-85
2022/07/30 09:57:56;;;;;;;2.55;1.85;;;24.40;99.90;;;;;;6102567;23;20671;-87
2022/07/30 10:00:25;;;;;;;2.58;2.00;;;23.20;99.90;;;;;;6126762;23;20160;-86
2022/07/30 10:02:52;;;;;;;4.25;1.90;;;23.60;99.90;;;;;;6102403;23;20168;-87
2022/07/30 10:05:19;;;;;;;3.42;2.28;;;23.20;99.90;;;;;;6101915;23;20234;-86
2022/07/30 10:07:50;;;;;;;5.35;2.28;;;23.30;99.90;;;;;;6126392;23;20196;-86
2022/07/30 10:10:24;;;;;;;4.45;2.33;;;24.40;99.90;;;;;;6102566;23;20688;-86
2022/07/30 10:12:52;;;;;;;2.58;2.33;;;24.60;99.90;;;;;;6126532;23;20274;-89
2022/07/30 10:15:24;;;;;;;2.35;2.15;;;24.20;99.90;;;;;;6126885;23;20760;-87
2022/07/30 10:17:50;;;;;;;2.00;1.90;;;24.40;99.90;;;;;;6126391;23;20187;-87
2022/07/30 10:20:16;;;;;;;3.20;2.33;;;24.80;99.90;;;;;;6126550;23;20556;-88
2022/07/30 10:22:43;;;;;;;5.18;2.40;;;24.40;99.90;;;;;;6127007;23;20279;-89
2022/07/30 10:25:09;;;;;;;5.15;2.42;;;24.40;99.90;;;;;;6102508;23;20192;-87
2022/07/30 10:27:36;;;;;;;3.38;2.22;;;24.20;99.90;;;;;;6102536;23;20244;-87
2022/07/30 10:30:02;;;;;;;2.75;2.03;;;24.10;99.90;;;;;;6126613;23;20192;-87
2022/07/30 10:32:31;;;;;;;7.50;2.30;;;24.50;99.90;;;;;;6103054;23;20207;-88
2022/07/30 10:34:58;;;;;;;1.85;1.75;;;24.80;99.90;;;;;;6078028;23;20824;-87
2022/07/30 10:37:26;;;;;;;3.45;2.33;;;24.10;99.90;;;;;;6101696;23;20226;-87
2022/07/30 10:39:56;;;;;;;4.38;1.95;;;24.70;99.90;;;;;;6101905;23;20191;-87
2022/07/30 10:43:02;;;;;;;3.05;1.98;;;25.90;99.90;;;;;;6125813;23;20141;-85
2022/07/30 10:45:55;;;;;;;2.78;1.85;;;24.40;99.90;;;;;;6126226;23;20223;-87
2022/07/30 10:48:21;;;;;;;3.58;2.17;;;25.00;99.90;;;;;;6126033;23;20153;-86
2022/07/30 10:50:54;;;;;;;4.95;2.10;;;24.40;99.90;;;;;;6126302;23;20315;-85
2022/07/30 10:53:34;;;;;;;7.43;2.83;;;25.60;99.90;;;;;;6125836;23;20527;-86
2022/07/30 10:56:11;;;;;;;2.63;2.40;;;26.80;99.90;;;;;;6125696;23;20202;-88
2022/07/30 10:59:06;;;;;;;2.47;2.10;;;25.80;99.90;;;;;;6126219;23;20223;-88
2022/07/30 11:01:47;;;;;;;3.75;2.17;;;25.60;99.90;;;;;;6126342;23;20538;-88
2022/07/30 11:04:19;;;;;;;2.15;1.95;;;24.90;99.90;;;;;;6125854;23;20199;-88
2022/07/30 11:06:45;;;;;;;3.08;1.90;;;25.10;99.90;;;;;;6127678;23;20737;-87
2022/07/30 11:09:33;;;;;;;31.65;4.45;;;24.80;99.90;;;;;;6126402;23;20188;-88
2022/07/30 11:11:59;;;;;;;16.75;3.85;;;25.10;99.90;;;;;;6111062;23;20156;-90
2022/07/30 11:14:47;;;;;;;3.40;2.05;;;25.00;99.90;;;;;;6077827;23;20316;-89
2022/07/30 11:17:15;;;;;;;2.60;2.13;;;24.70;99.90;;;;;;6126214;23;20207;-88
2022/07/30 11:20:06;;;;;;;2.08;1.95;;;25.10;99.90;;;;;;6127004;23;20200;-90
2022/07/30 11:22:37;;;;;;;2.17;1.92;;;24.70;99.90;;;;;;6125392;23;20573;-86
2022/07/30 11:25:04;;;;;;;5.07;2.30;;;24.30;99.90;;;;;;6125325;23;20223;-85
2022/07/30 11:27:47;;;;;;;3.45;1.95;;;23.90;99.90;;;;;;6125293;23;20195;-86
2022/07/30 11:30:15;;;;;;;5.72;2.20;;;24.30;99.90;;;;;;6126189;23;20628;-91
2022/07/30 11:32:49;;;;;;;2.40;2.08;;;24.60;99.90;;;;;;6127681;23;20601;-88
2022/07/30 11:35:14;;;;;;;2.10;1.80;;;25.10;99.90;;;;;;6102436;23;20199;-88
2022/07/30 11:37:59;;;;;;;2.55;1.92;;;25.10;99.90;;;;;;6125173;23;20286;-88
2022/07/30 11:40:27;;;;;;;3.05;1.77;;;24.70;99.90;;;;;;6126561;23;20218;-85
2022/07/30 11:43:23;;;;;;;4.38;1.63;;;24.50;99.90;;;;;;6096905;23;20271;-85
2022/07/30 11:45:59;;;;;;;1.58;1.48;;;24.10;99.90;;;;;;6071962;23;20201;-85
2022/07/30 11:48:25;;;;;;;4.10;1.30;;;24.20;99.90;;;;;;6072304;23;20274;-86
2022/07/30 11:50:54;;;;;;;1.40;1.20;;;24.00;99.90;;;;;;6024803;23;20188;-85
2022/07/30 11:53:20;;;;;;;1.80;1.20;;;24.40;99.90;;;;;;6071875;23;20196;-86
2022/07/30 11:55:57;;;;;;;1.00;0.90;;;24.70;99.90;;;;;;6048163;23;20527;-85
2022/07/30 11:58:35;;;;;;;2.88;1.52;;;24.30;99.90;;;;;;6071683;23;20211;-85
2022/07/30 12:01:10;;;;;;;1.40;1.30;;;24.30;99.90;;;;;;6071382;23;20275;-85
2022/07/30 12:03:40;;;;;;;1.13;1.02;;;24.10;99.90;;;;;;6071787;23;20270;-85
2022/07/30 12:06:16;;;;;;;2.70;1.42;;;24.20;99.90;;;;;;6047998;23;20621;-86
2022/07/30 12:08:45;;;;;;;1.23;1.13;;;24.00;99.90;;;;;;6072389;23;20171;-86
2022/07/30 12:11:11;;;;;;;1.55;1.20;;;23.90;99.90;;;;;;6047769;23;20192;-86
2022/07/30 12:13:38;;;;;;;2.15;1.33;;;23.60;99.90;;;;;;6047962;23;20196;-86
2022/07/30 12:16:08;;;;;;;1.38;1.27;;;23.50;99.90;;;;;;6047660;23;20212;-86
2022/07/30 12:18:34;;;;;;;1.00;1.00;;;23.30;99.90;;;;;;6072239;23;20255;-86
2022/07/30 12:21:02;;;;;;;2.90;1.10;;;23.70;99.90;;;;;;6072267;23;20244;-86
2022/07/30 12:23:29;;;;;;;2.28;1.02;;;23.10;99.90;;;;;;6047438;23;20201;-85
2022/07/30 12:25:56;;;;;;;1.13;1.02;;;23.00;99.90;;;;;;6047686;23;20204;-86
2022/07/30 12:28:28;;;;;;;1.98;1.30;;;22.90;99.90;;;;;;6048018;23;20562;-85
2022/07/30 12:30:55;;;;;;;1.27;1.17;;;23.00;99.90;;;;;;6071538;23;20200;-85
2022/07/30 12:33:23;;;;;;;3.53;1.42;;;23.00;99.90;;;;;;6047704;23;20549;-86
2022/07/30 12:35:56;;;;;;;1.20;1.10;;;23.00;99.90;;;;;;6048469;23;20534;-85
2022/07/30 12:38:23;;;;;;;1.88;1.40;;;22.70;99.90;;;;;;6072842;23;20255;-85
2022/07/30 12:41:02;;;;;;;2.25;1.10;;;22.70;99.90;;;;;;6071398;23;20653;-85
2022/07/30 12:43:46;;;;;;;2.25;1.48;;;22.90;99.90;;;;;;6088384;23;20219;-85
2022/07/30 12:46:15;;;;;;;3.47;1.05;;;23.10;99.90;;;;;;6124559;23;20199;-84
2022/07/30 12:49:01;;;;;;;2.30;1.45;;;23.20;99.90;;;;;;6124371;23;20200;-85
2022/07/30 12:51:32;;;;;;;3.75;1.60;;;23.30;99.90;;;;;;6124646;23;20191;-86
2022/07/30 12:54:00;;;;;;;2.30;1.45;;;23.20;99.90;;;;;;6124596;23;20239;-85